Portada
METAR-TAF:

METAR-TAF

Aeroports :

Illinois Valley Regional Airport (Walter A. Duncan Field)

Peru-LaSalle, Illinois, Estats Units d'Amèrica

latitud: 41-21-07N, longitud: 089-09-11W, altitud: 199 m

Observació

L'informe es va fer fa 32 minuts, a les 22:55 UTC
Vent 7 kt del Sud/Sud-Est
Temperatura 31°C
Humitat 49%
Pressió 1011 hPa
Visibilitat: 16.1 km
Cel clar

METAR: KVYS 242255Z AUTO 16007KT 10SM CLR 31/19 A2984 RMK AO2 T03070185

Hora: 18:27 (23:27 UTC)


TAF: manca

Observacions i pronòstics meteorològics de més de 4000 aeroports (METAR i TAF).

Les estacions disponibles són els punts grocs i vermells al mapa.

Posi el ratolí al punt desitjat per veure el nom de l'estació.

Feu clic per veure les observacions i els pronòstics meteorològics.

Per canviar el mapa: feu clic els botons verds amb una creu de color negre per apropar; al botó verd amb un guió per allunyar la imatge; o en les fletxes verdes per a mapes adjacents.


METAR-TAF: